Latest Coastal Weather Observations for Low Head

IDT60701

Issued at 6:32 pm EST Thursday 30 June 2016 (issued every 10 minutes, with the page automatically refreshed every 10 minutes)

About coastal observations | Map of coastal stations | Coastal observations for TAS | Marine services | Other Formats
Station Details ID: 091293 Name: LOW HEAD Lat: -41.05 Lon: 146.79 Height: 3.0 m
Data from the previous 72 hours. | See also: Recent months at Low Head
Date/Time
EST
Temp
°C
Wind Pressure Rain since
9am
mm
Weather Cloud Vis
km
Sea
Height
m
Swell
Dir  Spd
kts
Gust
kts
hPa Trend Height
m
Period
s
Dir
30/06:30pm 12.0 NNW 22 26 1003.8 - 5.2 - - - - - - -
30/06:00pm 11.9 NNW 24 28 1003.6 - 5.2 Rain - - - - - -
30/05:30pm 11.9 NNW 24 28 1003.2 - 5.0 - - - - - - -
30/05:00pm 11.6 NNW 24 30 1003.0 - 5.0 - - - - - - -
30/04:30pm 12.1 NNW 25 29 1003.0 - 4.8 - - - - - - -
30/04:00pm 12.1 NNW 27 32 1002.8 - 4.8 - - - - - - -
30/03:30pm 11.8 NNW 28 36 1002.9 - 4.8 - - - - - - -
30/03:00pm 11.4 NNW 27 34 1003.0 - 4.8 Rain - - - - - -
30/02:30pm 11.5 N 27 32 1003.1 - 4.6 - - - - - - -
30/02:00pm 11.1 N 28 34 1003.6 - 4.4 - - - - - - -
30/01:30pm 10.6 N 29 35 1004.0 - 3.2 - - - - - - -
30/01:00pm 11.4 N 28 34 1004.3 - 1.4 - - - - - - -
30/12:30pm 11.1 N 30 36 1005.2 - 0.8 - - - - - - -
30/12:00pm 11.6 N 32 41 1005.5 - 0.2 Recent precip. - - - - - -
30/11:30am 12.0 N 31 37 1006.0 - 0.0 - - - - - - -
30/11:00am 12.4 N 33 39 1006.6 - 0.0 - - - - - - -
30/10:30am 12.7 N 27 33 1007.1 - 0.0 - - - - - - -
30/10:00am 12.9 N 29 37 1007.5 - 0.0 - - - - - - -
30/09:30am 12.6 N 32 37 1007.7 - 0.0 - - - - - - -
30/09:00am 12.7 N 31 38 1008.1 - 0.4 - - - - - - -
30/08:30am 12.7 N 32 39 1008.4 - 0.4 - - - - - - -
30/08:00am 13.0 N 31 37 1008.8 - 0.4 - - - - - - -
30/07:30am 12.8 N 31 37 1009.1 - 0.4 - - - - - - -
30/07:15am 12.9 N 30 40 1009.2 - 0.4 - - - - - - -
30/07:00am 13.0 N 30 34 1009.5 - 0.4 - - - - - - -
30/06:30am 12.6 N 29 36 1009.9 - 0.4 - - - - - - -
30/06:00am 12.9 N 29 35 1010.2 - 0.4 - - - - - - -
30/05:30am 13.1 N 29 38 1010.8 - 0.4 - - - - - - -
30/05:00am 13.0 N 30 37 1011.1 - 0.4 - - - - - - -
30/04:30am 12.9 N 29 36 1011.5 - 0.4 - - - - - - -
30/04:00am 13.0 N 27 35 1012.0 - 0.4 - - - - - - -
30/03:30am 12.9 N 27 32 1012.7 - 0.4 - - - - - - -
30/03:00am 12.8 NNW 26 31 1013.3 - 0.4 Recent precip. - - - - - -
30/02:30am 12.8 NNW 25 30 1014.0 - 0.4 - - - - - - -
30/02:00am 12.1 NNW 21 29 1014.7 - 0.2 - - - - - - -
30/01:30am 12.3 NNW 23 33 1015.1 - 0.0 - - - - - - -
30/01:00am 13.0 NNW 21 25 1015.5 - 0.0 - - - - - - -
30/12:30am 13.0 NW 22 27 1016.1 - 0.0 - - - - - - -
30/12:00am 13.2 NNW 23 28 1016.6 - 0.0 - - - - - - -
 
Date/Time
EST
Temp
°C
Wind Pressure Rain since
9am
mm
Weather Cloud Vis
km
Sea
Height
m
Swell
Dir  Spd
kts
Gust
kts
hPa Trend Height
m
Period
s
Dir
29/11:30pm 13.1 NNW 23 28 1016.9 - 0.0 - - - - - - -
29/11:00pm 13.2 NNW 24 29 1017.3 - 0.0 - - - - - - -
29/10:30pm 13.4 N 18 20 1017.4 - 0.0 - - - - - - -
29/10:00pm 13.2 N 16 19 1017.9 - 0.0 - - - - - - -
29/09:30pm 13.2 N 15 18 1018.2 - 0.0 - - - - - - -
29/09:00pm 13.2 N 16 18 1018.4 - 0.0 - - - - - - -
29/08:30pm 13.0 N 15 18 1018.6 - 0.0 - - - - - - -
29/08:00pm 13.1 NNW 14 16 1019.0 - 0.0 - - - - - - -
29/07:30pm 13.2 NNW 15 17 1019.2 - 0.0 - - - - - - -
29/07:00pm 13.2 NNW 15 17 1019.4 - 0.0 - - - - - - -
29/06:30pm 13.2 NNW 13 15 1019.5 - 0.0 - - - - - - -
29/06:00pm 13.2 NW 15 17 1019.5 - 0.0 - - - - - - -
29/05:30pm 13.3 NW 18 21 1019.6 - 0.0 - - - - - - -
29/05:00pm 13.4 NW 16 19 1019.6 - 0.0 - - - - - - -
29/04:30pm 13.3 NW 18 22 1019.8 - 0.0 - - - - - - -
29/04:00pm 13.3 NW 19 22 1019.9 - 0.0 - - - - - - -
29/03:30pm 14.0 NW 18 21 1020.0 - 0.0 - - - - - - -
29/03:00pm 14.5 NW 16 19 1020.0 - 0.0 - - - - - - -
29/02:30pm 14.7 WNW 14 16 1020.1 - 0.0 - - - - - - -
29/02:00pm 14.6 WNW 15 19 1020.2 - 0.0 - - - - - - -
29/01:30pm 14.7 WNW 14 16 1020.4 - 0.0 - - - - - - -
29/01:00pm 14.5 WNW 14 17 1020.8 - 0.0 - - - - - - -
29/12:30pm 14.5 WNW 12 15 1021.2 - 0.0 - - - - - - -
29/12:00pm 14.2 WNW 13 15 1021.6 - 0.0 - - - - - - -
29/11:30am 14.1 WNW 13 15 1022.1 - 0.0 - - - - - - -
29/11:00am 13.8 WNW 13 15 1022.4 - 0.0 - - - - - - -
29/10:30am 13.7 W 14 17 1022.4 - 0.0 - - - - - - -
29/10:00am 13.6 W 16 19 1022.3 - 0.0 - - - - - - -
29/09:30am 13.5 W 17 21 1022.2 - 0.0 - - - - - - -
29/09:00am 13.3 W 17 21 1022.2 - 0.8 - - - - - - -
29/08:30am 13.1 W 19 22 1021.8 - 0.8 - - - - - - -
29/08:00am 12.9 WNW 19 23 1021.3 - 0.8 - - - - - - -
29/07:30am 12.9 WNW 19 24 1021.1 - 0.8 - - - - - - -
29/07:00am 12.9 WNW 17 21 1020.9 - 0.8 - - - - - - -
29/06:30am 12.9 WNW 18 22 1020.7 - 0.8 - - - - - - -
29/06:00am 13.0 WNW 18 23 1020.6 - 0.8 - - - - - - -
29/05:30am 12.5 WNW 15 18 1020.3 - 0.8 - - - - - - -
29/05:00am 12.6 WNW 16 21 1020.0 - 0.8 - - - - - - -
29/04:30am 12.8 W 19 23 1019.9 - 0.8 - - - - - - -
29/04:00am 12.7 W 19 23 1019.9 - 0.8 - - - - - - -
29/03:30am 12.4 WNW 22 25 1019.6 - 0.8 - - - - - - -
29/03:00am 12.6 W 22 29 1019.8 - 0.8 - - - - - - -
29/02:30am 12.6 WNW 18 27 1019.9 - 0.8 - - - - - - -
29/02:27am 12.8 WNW 16 27 1019.9 - 0.8 - - - - - - -
29/02:00am 12.8 WNW 18 21 1019.8 - 0.8 - - - - - - -
29/01:30am 13.1 WNW 19 23 1019.6 - 0.8 - - - - - - -
29/01:00am 13.1 WNW 19 24 1019.8 - 0.8 - - - - - - -
29/12:30am 12.7 WNW 20 24 1019.9 - 0.8 - - - - - - -
29/12:00am 12.8 WNW 23 28 1019.9 - 0.8 Recent precip. - - - - - -
 
Date/Time
EST
Temp
°C
Wind Pressure Rain since
9am
mm
Weather Cloud Vis
km
Sea
Height
m
Swell
Dir  Spd
kts
Gust
kts
hPa Trend Height
m
Period
s
Dir
28/11:30pm 13.1 WNW 19 22 1019.9 - 0.0 - - - - - - -
28/11:00pm 13.4 WNW 19 23 1019.9 - 0.0 - - - - - - -
28/10:30pm 13.4 WNW 15 17 1020.0 - 0.0 - - - - - - -
28/10:00pm 13.4 WNW 18 22 1020.1 - 0.0 - - - - - - -
28/09:30pm 13.4 WNW 19 23 1020.1 - 0.0 - - - - - - -
28/09:00pm 13.4 WNW 19 23 1020.0 - 0.0 - - - - - - -
28/08:30pm 13.3 WNW 19 22 1019.8 - 0.0 - - - - - - -
28/08:00pm 13.4 WNW 19 22 1019.7 - 0.0 - - - - - - -
28/07:30pm 13.3 WNW 17 20 1019.4 - 0.0 - - - - - - -
28/07:00pm 13.3 WNW 18 22 1019.2 - 0.0 - - - - - - -
28/06:30pm 13.4 WNW 17 20 1019.0 - 0.0 - - - - - - -
28/06:00pm 13.3 WNW 18 21 1018.7 - 0.0 - - - - - - -
28/05:30pm 13.3 WNW 20 25 1018.3 - 0.0 - - - - - - -
28/05:00pm 13.1 WNW 17 21 1017.9 - 0.0 - - - - - - -
28/04:30pm 13.6 WNW 19 22 1017.7 - 0.0 - - - - - - -
28/04:00pm 13.8 WNW 19 23 1017.6 - 0.0 - - - - - - -
28/03:30pm 14.2 WNW 19 22 1017.4 - 0.0 - - - - - - -
28/03:00pm 14.3 WNW 18 22 1017.1 - 0.0 - - - - - - -
28/02:30pm 14.3 WNW 19 22 1016.9 - 0.0 - - - - - - -
28/02:00pm 14.4 WNW 21 25 1017.1 - 0.0 - - - - - - -
28/01:30pm 14.3 WNW 19 22 1017.2 - 0.0 - - - - - - -
28/01:00pm 14.2 WNW 18 22 1017.2 - 0.0 - - - - - - -
28/12:30pm 13.9 WNW 20 23 1017.2 - 0.0 - - - - - - -
28/12:00pm 13.7 WNW 22 26 1017.3 - 0.0 - - - - - - -
28/11:30am 13.6 WNW 24 28 1017.2 - 0.0 - - - - - - -
28/11:00am 13.6 WNW 22 26 1017.6 - 0.0 - - - - - - -
28/10:30am 13.6 WNW 20 24 1017.5 - 0.0 - - - - - - -
28/10:00am 13.4 WNW 20 23 1017.4 - 0.0 - - - - - - -
28/09:30am 13.1 WNW 21 25 1017.2 - 0.0 - - - - - - -
28/09:00am 12.9 WNW 22 25 1016.9 - 0.0 - - - - - - -
28/08:30am 12.9 WNW 18 21 1016.8 - 0.0 - - - - - - -
28/08:00am 12.8 WNW 18 22 1016.8 - 0.0 - - - - - - -
28/07:30am 12.7 W 20 25 1016.3 - 0.0 - - - - - - -
28/07:00am 12.6 W 21 24 1015.9 - 0.0 - - - - - - -
28/06:30am 12.4 W 20 23 1015.7 - 0.0 - - - - - - -
28/06:00am 12.5 W 20 23 1015.5 - 0.0 - - - - - - -
28/05:30am 12.5 W 19 23 1015.2 - 0.0 - - - - - - -
28/05:00am 12.4 W 16 19 1015.2 - 0.0 - - - - - - -
28/04:30am 12.4 W 17 19 1015.2 - 0.0 - - - - - - -
28/04:00am 12.5 WNW 20 24 1015.1 - 0.0 - - - - - - -
28/03:30am 12.4 W 19 23 1015.1 - 0.0 - - - - - - -
28/03:00am 12.1 W 17 20 1015.2 - 0.0 - - - - - - -
28/02:30am 12.0 WNW 18 21 1015.1 - 0.0 - - - - - - -
28/02:00am 11.8 WNW 16 18 1015.1 - 0.0 - - - - - - -
28/01:30am 11.7 W 17 20 1015.2 - 0.0 - - - - - - -
28/01:00am 11.7 WNW 18 21 1015.3 - 0.0 - - - - - - -
28/12:30am 11.6 W 18 21 1015.3 - 0.0 - - - - - - -
28/12:00am 11.4 WNW 18 22 1015.1 - 0.0 - - - - - - -
 
Date/Time
EST
Temp
°C
Wind Pressure Rain since
9am
mm
Weather Cloud Vis
km
Sea
Height
m
Swell
Dir  Spd
kts
Gust
kts
hPa Trend Height
m
Period
s
Dir
27/11:30pm 11.5 W 20 23 1015.2 - 0.0 - - - - - - -
27/11:00pm 11.5 WNW 20 22 1015.2 - 0.0 - - - - - - -
27/10:30pm 11.7 W 19 22 1015.3 - 0.0 - - - - - - -
27/10:00pm 11.6 W 18 20 1015.2 - 0.0 - - - - - - -
27/09:30pm 11.5 W 17 19 1015.1 - 0.0 - - - - - - -
27/09:00pm 11.7 W 16 19 1015.2 - 0.0 - - - - - - -
27/08:30pm 11.7 W 18 20 1014.9 - 0.0 - - - - - - -
27/08:00pm 11.8 W 19 22 1014.7 - 0.0 - - - - - - -
27/07:30pm 11.8 W 20 23 1014.7 - 0.0 - - - - - - -
27/07:00pm 11.9 W 19 22 1014.4 - 0.0 - - - - - - -

Other Formats:

Comma delimited format used in spreadsheet applications
http://www.bom.gov.au/fwo/IDT60701/IDT60701.95964.axf

JavaScript Object Notation format (JSON) in row-major order
http://www.bom.gov.au/fwo/IDT60701/IDT60701.95964.json